sensor_id;sensor_type;location;lat;lon;timestamp;pressure;altitude;pressure_sealevel;temperature
8227;BMP180;4154;48.810;9.012;2023-02-04T00:00:19;98274.00;;;6.60
8227;BMP180;4154;48.810;9.012;2023-02-04T00:02:46;98267.00;;;6.60
8227;BMP180;4154;48.810;9.012;2023-02-04T00:05:13;98265.00;;;6.60
8227;BMP180;4154;48.810;9.012;2023-02-04T00:07:39;98279.00;;;6.60
8227;BMP180;4154;48.810;9.012;2023-02-04T00:10:06;98272.00;;;6.50
8227;BMP180;4154;48.810;9.012;2023-02-04T00:12:32;98275.00;;;6.50
8227;BMP180;4154;48.810;9.012;2023-02-04T00:14:59;98261.00;;;6.50
8227;BMP180;4154;48.810;9.012;2023-02-04T00:17:25;98262.00;;;6.50
8227;BMP180;4154;48.810;9.012;2023-02-04T00:19:51;98266.00;;;6.50
8227;BMP180;4154;48.810;9.012;2023-02-04T00:22:16;98269.00;;;6.50
8227;BMP180;4154;48.810;9.012;2023-02-04T00:24:42;98257.00;;;6.50
8227;BMP180;4154;48.810;9.012;2023-02-04T00:27:13;98262.00;;;6.50
8227;BMP180;4154;48.810;9.012;2023-02-04T00:29:39;98274.00;;;6.60
8227;BMP180;4154;48.810;9.012;2023-02-04T00:32:04;98279.00;;;6.60
8227;BMP180;4154;48.810;9.012;2023-02-04T00:34:30;98275.00;;;6.70
8227;BMP180;4154;48.810;9.012;2023-02-04T00:36:55;98285.00;;;6.70
8227;BMP180;4154;48.810;9.012;2023-02-04T00:39:21;98271.00;;;6.70
8227;BMP180;4154;48.810;9.012;2023-02-04T00:41:47;98284.00;;;6.70
8227;BMP180;4154;48.810;9.012;2023-02-04T00:44:13;98285.00;;;6.80
8227;BMP180;4154;48.810;9.012;2023-02-04T00:46:42;98286.00;;;6.80
8227;BMP180;4154;48.810;9.012;2023-02-04T00:49:09;98279.00;;;6.80
8227;BMP180;4154;48.810;9.012;2023-02-04T00:51:40;98286.00;;;6.70
8227;BMP180;4154;48.810;9.012;2023-02-04T00:54:11;98281.00;;;6.70
8227;BMP180;4154;48.810;9.012;2023-02-04T00:56:37;98274.00;;;6.80
8227;BMP180;4154;48.810;9.012;2023-02-04T00:59:02;98286.00;;;6.70
8227;BMP180;4154;48.810;9.012;2023-02-04T01:01:28;98290.00;;;6.70
8227;BMP180;4154;48.810;9.012;2023-02-04T01:03:54;98289.00;;;6.80
8227;BMP180;4154;48.810;9.012;2023-02-04T01:06:20;98280.00;;;6.70
8227;BMP180;4154;48.810;9.012;2023-02-04T01:08:45;98275.00;;;6.70
8227;BMP180;4154;48.810;9.012;2023-02-04T01:11:11;98286.00;;;6.80
8227;BMP180;4154;48.810;9.012;2023-02-04T01:13:37;98292.00;;;6.80
8227;BMP180;4154;48.810;9.012;2023-02-04T01:16:02;98299.00;;;6.80
8227;BMP180;4154;48.810;9.012;2023-02-04T01:18:28;98301.00;;;6.90
8227;BMP180;4154;48.810;9.012;2023-02-04T01:20:53;98292.00;;;6.80
8227;BMP180;4154;48.810;9.012;2023-02-04T01:23:19;98312.00;;;6.80
8227;BMP180;4154;48.810;9.012;2023-02-04T01:25:45;98301.00;;;6.70
8227;BMP180;4154;48.810;9.012;2023-02-04T01:28:10;98305.00;;;6.70
8227;BMP180;4154;48.810;9.012;2023-02-04T01:30:36;98299.00;;;6.70
8227;BMP180;4154;48.810;9.012;2023-02-04T01:33:01;98311.00;;;6.70
8227;BMP180;4154;48.810;9.012;2023-02-04T01:35:27;98299.00;;;6.70
8227;BMP180;4154;48.810;9.012;2023-02-04T01:37:53;98307.00;;;6.70
8227;BMP180;4154;48.810;9.012;2023-02-04T01:40:18;98311.00;;;6.60
8227;BMP180;4154;48.810;9.012;2023-02-04T01:42:44;98309.00;;;6.60
8227;BMP180;4154;48.810;9.012;2023-02-04T01:45:10;98310.00;;;6.50
8227;BMP180;4154;48.810;9.012;2023-02-04T01:47:36;98321.00;;;6.40
8227;BMP180;4154;48.810;9.012;2023-02-04T01:50:03;98322.00;;;6.20
8227;BMP180;4154;48.810;9.012;2023-02-04T01:52:35;98319.00;;;6.20
8227;BMP180;4154;48.810;9.012;2023-02-04T01:55:03;98321.00;;;6.10
8227;BMP180;4154;48.810;9.012;2023-02-04T01:57:31;98326.00;;;6.10
8227;BMP180;4154;48.810;9.012;2023-02-04T01:59:58;98311.00;;;6.00
8227;BMP180;4154;48.810;9.012;2023-02-04T02:02:57;98325.00;;;6.00
8227;BMP180;4154;48.810;9.012;2023-02-04T02:05:35;98327.00;;;5.90
8227;BMP180;4154;48.810;9.012;2023-02-04T02:08:04;98317.00;;;5.90
8227;BMP180;4154;48.810;9.012;2023-02-04T02:10:31;98322.00;;;5.90
8227;BMP180;4154;48.810;9.012;2023-02-04T02:12:58;98310.00;;;6.00
8227;BMP180;4154;48.810;9.012;2023-02-04T02:15:24;98312.00;;;5.90
8227;BMP180;4154;48.810;9.012;2023-02-04T02:17:53;98317.00;;;5.90
8227;BMP180;4154;48.810;9.012;2023-02-04T02:20:21;98321.00;;;5.80
8227;BMP180;4154;48.810;9.012;2023-02-04T02:23:13;98323.00;;;5.80
8227;BMP180;4154;48.810;9.012;2023-02-04T02:25:42;98327.00;;;5.80
8227;BMP180;4154;48.810;9.012;2023-02-04T02:28:17;98324.00;;;5.80
8227;BMP180;4154;48.810;9.012;2023-02-04T02:30:44;98316.00;;;5.70
8227;BMP180;4154;48.810;9.012;2023-02-04T02:33:12;98328.00;;;5.60
8227;BMP180;4154;48.810;9.012;2023-02-04T02:35:40;98325.00;;;5.70
8227;BMP180;4154;48.810;9.012;2023-02-04T02:38:11;98332.00;;;5.70
8227;BMP180;4154;48.810;9.012;2023-02-04T02:40:38;98344.00;;;5.70
8227;BMP180;4154;48.810;9.012;2023-02-04T02:43:04;98348.00;;;5.70
8227;BMP180;4154;48.810;9.012;2023-02-04T02:45:32;98357.00;;;5.70
8227;BMP180;4154;48.810;9.012;2023-02-04T02:48:00;98357.00;;;5.60
8227;BMP180;4154;48.810;9.012;2023-02-04T02:50:31;98343.00;;;5.70
8227;BMP180;4154;48.810;9.012;2023-02-04T02:52:57;98348.00;;;5.60
8227;BMP180;4154;48.810;9.012;2023-02-04T02:55:26;98349.00;;;5.60
8227;BMP180;4154;48.810;9.012;2023-02-04T02:57:53;98343.00;;;5.70
8227;BMP180;4154;48.810;9.012;2023-02-04T03:00:28;98345.00;;;5.70
8227;BMP180;4154;48.810;9.012;2023-02-04T03:03:27;98339.00;;;5.70
8227;BMP180;4154;48.810;9.012;2023-02-04T03:06:12;98349.00;;;5.70
8227;BMP180;4154;48.810;9.012;2023-02-04T03:08:40;98345.00;;;5.70
8227;BMP180;4154;48.810;9.012;2023-02-04T03:11:06;98344.00;;;5.70
8227;BMP180;4154;48.810;9.012;2023-02-04T03:13:32;98344.00;;;5.70
8227;BMP180;4154;48.810;9.012;2023-02-04T03:16:02;98360.00;;;5.70
8227;BMP180;4154;48.810;9.012;2023-02-04T03:18:28;98360.00;;;5.70
8227;BMP180;4154;48.810;9.012;2023-02-04T03:20:56;98368.00;;;5.70
8227;BMP180;4154;48.810;9.012;2023-02-04T03:23:22;98374.00;;;5.70
8227;BMP180;4154;48.810;9.012;2023-02-04T03:25:47;98393.00;;;5.70
8227;BMP180;4154;48.810;9.012;2023-02-04T03:28:13;98387.00;;;5.80
8227;BMP180;4154;48.810;9.012;2023-02-04T03:30:38;98395.00;;;5.70
8227;BMP180;4154;48.810;9.012;2023-02-04T03:33:04;98401.00;;;5.70
8227;BMP180;4154;48.810;9.012;2023-02-04T03:35:30;98408.00;;;5.60
8227;BMP180;4154;48.810;9.012;2023-02-04T03:37:55;98413.00;;;5.70
8227;BMP180;4154;48.810;9.012;2023-02-04T03:40:21;98419.00;;;5.60
8227;BMP180;4154;48.810;9.012;2023-02-04T03:42:47;98411.00;;;5.70
8227;BMP180;4154;48.810;9.012;2023-02-04T03:45:12;98428.00;;;5.70
8227;BMP180;4154;48.810;9.012;2023-02-04T03:47:38;98421.00;;;5.80
8227;BMP180;4154;48.810;9.012;2023-02-04T03:50:04;98417.00;;;5.80
8227;BMP180;4154;48.810;9.012;2023-02-04T03:52:30;98417.00;;;5.80
8227;BMP180;4154;48.810;9.012;2023-02-04T03:54:56;98419.00;;;5.70
8227;BMP180;4154;48.810;9.012;2023-02-04T03:57:21;98424.00;;;5.80
8227;BMP180;4154;48.810;9.012;2023-02-04T03:59:47;98424.00;;;5.80
8227;BMP180;4154;48.810;9.012;2023-02-04T04:02:12;98430.00;;;5.80
8227;BMP180;4154;48.810;9.012;2023-02-04T04:04:38;98428.00;;;5.70
8227;BMP180;4154;48.810;9.012;2023-02-04T04:07:04;98433.00;;;5.80
8227;BMP180;4154;48.810;9.012;2023-02-04T04:09:29;98435.00;;;5.80
8227;BMP180;4154;48.810;9.012;2023-02-04T04:11:55;98435.00;;;5.90
8227;BMP180;4154;48.810;9.012;2023-02-04T04:14:21;98428.00;;;5.90
8227;BMP180;4154;48.810;9.012;2023-02-04T04:16:46;98425.00;;;5.80
8227;BMP180;4154;48.810;9.012;2023-02-04T04:19:12;98425.00;;;5.80
8227;BMP180;4154;48.810;9.012;2023-02-04T04:21:37;98425.00;;;5.70
8227;BMP180;4154;48.810;9.012;2023-02-04T04:24:03;98415.00;;;5.70
8227;BMP180;4154;48.810;9.012;2023-02-04T04:26:29;98428.00;;;5.70
8227;BMP180;4154;48.810;9.012;2023-02-04T04:28:54;98435.00;;;5.70
8227;BMP180;4154;48.810;9.012;2023-02-04T04:31:20;98430.00;;;5.70
8227;BMP180;4154;48.810;9.012;2023-02-04T04:33:46;98436.00;;;5.70
8227;BMP180;4154;48.810;9.012;2023-02-04T04:36:11;98421.00;;;5.70
8227;BMP180;4154;48.810;9.012;2023-02-04T04:38:37;98435.00;;;5.70
8227;BMP180;4154;48.810;9.012;2023-02-04T04:41:03;98441.00;;;5.70
8227;BMP180;4154;48.810;9.012;2023-02-04T04:43:28;98453.00;;;5.60
8227;BMP180;4154;48.810;9.012;2023-02-04T04:45:54;98459.00;;;5.70
8227;BMP180;4154;48.810;9.012;2023-02-04T04:48:19;98456.00;;;5.70
8227;BMP180;4154;48.810;9.012;2023-02-04T04:50:46;98459.00;;;5.70
8227;BMP180;4154;48.810;9.012;2023-02-04T04:53:11;98448.00;;;5.70
8227;BMP180;4154;48.810;9.012;2023-02-04T04:55:37;98449.00;;;5.70
8227;BMP180;4154;48.810;9.012;2023-02-04T04:58:05;98457.00;;;5.80
8227;BMP180;4154;48.810;9.012;2023-02-04T05:00:30;98450.00;;;5.80
8227;BMP180;4154;48.810;9.012;2023-02-04T05:02:56;98455.00;;;5.70
8227;BMP180;4154;48.810;9.012;2023-02-04T05:05:22;98456.00;;;5.70
8227;BMP180;4154;48.810;9.012;2023-02-04T05:07:47;98451.00;;;5.70
8227;BMP180;4154;48.810;9.012;2023-02-04T05:10:13;98451.00;;;5.70
8227;BMP180;4154;48.810;9.012;2023-02-04T05:12:39;98454.00;;;5.80
8227;BMP180;4154;48.810;9.012;2023-02-04T05:15:06;98462.00;;;5.80
8227;BMP180;4154;48.810;9.012;2023-02-04T05:17:32;98470.00;;;5.80
8227;BMP180;4154;48.810;9.012;2023-02-04T05:19:58;98463.00;;;5.80
8227;BMP180;4154;48.810;9.012;2023-02-04T05:22:23;98452.00;;;5.80
8227;BMP180;4154;48.810;9.012;2023-02-04T05:24:49;98468.00;;;5.90
8227;BMP180;4154;48.810;9.012;2023-02-04T05:27:14;98461.00;;;5.90
8227;BMP180;4154;48.810;9.012;2023-02-04T05:29:40;98472.00;;;5.90
8227;BMP180;4154;48.810;9.012;2023-02-04T05:32:06;98478.00;;;5.90
8227;BMP180;4154;48.810;9.012;2023-02-04T05:34:32;98469.00;;;5.80
8227;BMP180;4154;48.810;9.012;2023-02-04T05:36:57;98472.00;;;5.80
8227;BMP180;4154;48.810;9.012;2023-02-04T05:39:23;98475.00;;;5.90
8227;BMP180;4154;48.810;9.012;2023-02-04T05:41:48;98477.00;;;5.80
8227;BMP180;4154;48.810;9.012;2023-02-04T05:44:14;98474.00;;;5.80
8227;BMP180;4154;48.810;9.012;2023-02-04T05:46:40;98476.00;;;5.80
8227;BMP180;4154;48.810;9.012;2023-02-04T05:49:06;98485.00;;;5.80
8227;BMP180;4154;48.810;9.012;2023-02-04T05:51:32;98487.00;;;5.80
8227;BMP180;4154;48.810;9.012;2023-02-04T05:53:58;98489.00;;;5.80
8227;BMP180;4154;48.810;9.012;2023-02-04T05:56:23;98476.00;;;5.80
8227;BMP180;4154;48.810;9.012;2023-02-04T05:58:50;98488.00;;;5.90
8227;BMP180;4154;48.810;9.012;2023-02-04T06:01:15;98476.00;;;5.90
8227;BMP180;4154;48.810;9.012;2023-02-04T06:03:41;98490.00;;;5.90
8227;BMP180;4154;48.810;9.012;2023-02-04T06:06:07;98492.00;;;5.90
8227;BMP180;4154;48.810;9.012;2023-02-04T06:08:32;98503.00;;;5.90
8227;BMP180;4154;48.810;9.012;2023-02-04T06:10:58;98505.00;;;5.90
8227;BMP180;4154;48.810;9.012;2023-02-04T06:13:23;98513.00;;;5.90
8227;BMP180;4154;48.810;9.012;2023-02-04T06:15:49;98517.00;;;5.80
8227;BMP180;4154;48.810;9.012;2023-02-04T06:18:15;98520.00;;;5.80
8227;BMP180;4154;48.810;9.012;2023-02-04T06:20:40;98514.00;;;5.70
8227;BMP180;4154;48.810;9.012;2023-02-04T06:23:06;98524.00;;;5.80
8227;BMP180;4154;48.810;9.012;2023-02-04T06:25:32;98526.00;;;5.70
8227;BMP180;4154;48.810;9.012;2023-02-04T06:27:57;98543.00;;;5.70
8227;BMP180;4154;48.810;9.012;2023-02-04T06:30:23;98538.00;;;5.70
8227;BMP180;4154;48.810;9.012;2023-02-04T06:32:48;98536.00;;;5.70
8227;BMP180;4154;48.810;9.012;2023-02-04T06:35:14;98529.00;;;5.70
8227;BMP180;4154;48.810;9.012;2023-02-04T06:37:42;98542.00;;;5.60
8227;BMP180;4154;48.810;9.012;2023-02-04T06:40:08;98552.00;;;5.60
8227;BMP180;4154;48.810;9.012;2023-02-04T06:42:35;98550.00;;;5.60
8227;BMP180;4154;48.810;9.012;2023-02-04T06:45:00;98550.00;;;5.60
8227;BMP180;4154;48.810;9.012;2023-02-04T06:47:26;98547.00;;;5.50
8227;BMP180;4154;48.810;9.012;2023-02-04T06:49:52;98547.00;;;5.60
8227;BMP180;4154;48.810;9.012;2023-02-04T06:52:17;98550.00;;;5.60
8227;BMP180;4154;48.810;9.012;2023-02-04T06:54:43;98551.00;;;5.60
8227;BMP180;4154;48.810;9.012;2023-02-04T06:57:09;98561.00;;;5.60
8227;BMP180;4154;48.810;9.012;2023-02-04T06:59:37;98555.00;;;5.60
8227;BMP180;4154;48.810;9.012;2023-02-04T07:02:05;98563.00;;;5.50
8227;BMP180;4154;48.810;9.012;2023-02-04T07:04:33;98559.00;;;5.50
8227;BMP180;4154;48.810;9.012;2023-02-04T07:06:59;98564.00;;;5.50
8227;BMP180;4154;48.810;9.012;2023-02-04T07:09:25;98566.00;;;5.40
8227;BMP180;4154;48.810;9.012;2023-02-04T07:11:50;98574.00;;;5.40
8227;BMP180;4154;48.810;9.012;2023-02-04T07:14:16;98575.00;;;5.40
8227;BMP180;4154;48.810;9.012;2023-02-04T07:16:43;98578.00;;;5.40
8227;BMP180;4154;48.810;9.012;2023-02-04T07:19:09;98597.00;;;5.40
8227;BMP180;4154;48.810;9.012;2023-02-04T07:21:34;98596.00;;;5.40
8227;BMP180;4154;48.810;9.012;2023-02-04T07:24:00;98607.00;;;5.40
8227;BMP180;4154;48.810;9.012;2023-02-04T07:26:25;98609.00;;;5.50
8227;BMP180;4154;48.810;9.012;2023-02-04T07:28:51;98610.00;;;5.40
8227;BMP180;4154;48.810;9.012;2023-02-04T07:31:17;98601.00;;;5.40
8227;BMP180;4154;48.810;9.012;2023-02-04T07:33:42;98613.00;;;5.40
8227;BMP180;4154;48.810;9.012;2023-02-04T07:36:08;98607.00;;;5.50
8227;BMP180;4154;48.810;9.012;2023-02-04T07:38:34;98614.00;;;5.50
8227;BMP180;4154;48.810;9.012;2023-02-04T07:41:00;98602.00;;;5.50
8227;BMP180;4154;48.810;9.012;2023-02-04T07:43:25;98617.00;;;5.50
8227;BMP180;4154;48.810;9.012;2023-02-04T07:45:51;98611.00;;;5.50
8227;BMP180;4154;48.810;9.012;2023-02-04T07:48:17;98611.00;;;5.50
8227;BMP180;4154;48.810;9.012;2023-02-04T07:50:43;98613.00;;;5.60
8227;BMP180;4154;48.810;9.012;2023-02-04T07:53:08;98619.00;;;5.40
8227;BMP180;4154;48.810;9.012;2023-02-04T07:55:34;98626.00;;;5.50
8227;BMP180;4154;48.810;9.012;2023-02-04T07:57:59;98640.00;;;5.50
8227;BMP180;4154;48.810;9.012;2023-02-04T08:00:25;98647.00;;;5.40
8227;BMP180;4154;48.810;9.012;2023-02-04T08:02:51;98640.00;;;5.40
8227;BMP180;4154;48.810;9.012;2023-02-04T08:05:17;98636.00;;;5.40
8227;BMP180;4154;48.810;9.012;2023-02-04T08:07:42;98629.00;;;5.50
8227;BMP180;4154;48.810;9.012;2023-02-04T08:10:09;98643.00;;;5.50
8227;BMP180;4154;48.810;9.012;2023-02-04T08:12:36;98642.00;;;5.50
8227;BMP180;4154;48.810;9.012;2023-02-04T08:15:03;98645.00;;;5.40
8227;BMP180;4154;48.810;9.012;2023-02-04T08:17:29;98646.00;;;5.40
8227;BMP180;4154;48.810;9.012;2023-02-04T08:19:55;98655.00;;;5.50
8227;BMP180;4154;48.810;9.012;2023-02-04T08:22:21;98655.00;;;5.50
8227;BMP180;4154;48.810;9.012;2023-02-04T08:24:46;98658.00;;;5.50
8227;BMP180;4154;48.810;9.012;2023-02-04T08:27:13;98660.00;;;5.50
8227;BMP180;4154;48.810;9.012;2023-02-04T08:29:38;98670.00;;;5.50
8227;BMP180;4154;48.810;9.012;2023-02-04T08:32:04;98667.00;;;5.60
8227;BMP180;4154;48.810;9.012;2023-02-04T08:34:31;98671.00;;;5.60
8227;BMP180;4154;48.810;9.012;2023-02-04T08:36:57;98674.00;;;5.60
8227;BMP180;4154;48.810;9.012;2023-02-04T08:39:23;98665.00;;;5.60
8227;BMP180;4154;48.810;9.012;2023-02-04T08:41:48;98667.00;;;5.60
8227;BMP180;4154;48.810;9.012;2023-02-04T08:44:16;98667.00;;;5.60
8227;BMP180;4154;48.810;9.012;2023-02-04T08:46:41;98674.00;;;5.70
8227;BMP180;4154;48.810;9.012;2023-02-04T08:49:07;98673.00;;;5.80
8227;BMP180;4154;48.810;9.012;2023-02-04T08:51:32;98676.00;;;5.70
8227;BMP180;4154;48.810;9.012;2023-02-04T08:53:58;98682.00;;;5.70
8227;BMP180;4154;48.810;9.012;2023-02-04T08:56:24;98694.00;;;5.70
8227;BMP180;4154;48.810;9.012;2023-02-04T08:58:49;98685.00;;;5.80
8227;BMP180;4154;48.810;9.012;2023-02-04T09:01:18;98686.00;;;5.80
8227;BMP180;4154;48.810;9.012;2023-02-04T09:03:43;98696.00;;;5.80
8227;BMP180;4154;48.810;9.012;2023-02-04T09:06:10;98694.00;;;5.70
8227;BMP180;4154;48.810;9.012;2023-02-04T09:08:36;98701.00;;;5.70
8227;BMP180;4154;48.810;9.012;2023-02-04T09:11:02;98709.00;;;5.80
8227;BMP180;4154;48.810;9.012;2023-02-04T09:13:29;98712.00;;;5.80
8227;BMP180;4154;48.810;9.012;2023-02-04T09:15:55;98706.00;;;5.80
8227;BMP180;4154;48.810;9.012;2023-02-04T09:18:21;98696.00;;;5.80
8227;BMP180;4154;48.810;9.012;2023-02-04T09:20:49;98709.00;;;5.80
8227;BMP180;4154;48.810;9.012;2023-02-04T09:23:15;98722.00;;;5.90
8227;BMP180;4154;48.810;9.012;2023-02-04T09:25:43;98714.00;;;5.90
8227;BMP180;4154;48.810;9.012;2023-02-04T09:28:11;98708.00;;;5.80
8227;BMP180;4154;48.810;9.012;2023-02-04T09:30:39;98708.00;;;5.80
8227;BMP180;4154;48.810;9.012;2023-02-04T09:33:05;98727.00;;;5.80
8227;BMP180;4154;48.810;9.012;2023-02-04T09:35:32;98729.00;;;5.80
8227;BMP180;4154;48.810;9.012;2023-02-04T09:37:57;98731.00;;;5.80
8227;BMP180;4154;48.810;9.012;2023-02-04T09:40:26;98722.00;;;5.90
8227;BMP180;4154;48.810;9.012;2023-02-04T09:42:54;98727.00;;;5.90
8227;BMP180;4154;48.810;9.012;2023-02-04T09:45:26;98737.00;;;6.00
8227;BMP180;4154;48.810;9.012;2023-02-04T09:47:57;98747.00;;;6.00
8227;BMP180;4154;48.810;9.012;2023-02-04T09:50:27;98736.00;;;6.00
8227;BMP180;4154;48.810;9.012;2023-02-04T09:53:00;98747.00;;;6.00
8227;BMP180;4154;48.810;9.012;2023-02-04T09:55:38;98744.00;;;6.10
8227;BMP180;4154;48.810;9.012;2023-02-04T09:58:16;98748.00;;;6.10
8227;BMP180;4154;48.810;9.012;2023-02-04T10:00:45;98752.00;;;6.10
8227;BMP180;4154;48.810;9.012;2023-02-04T10:03:17;98736.00;;;6.10
8227;BMP180;4154;48.810;9.012;2023-02-04T10:05:45;98744.00;;;6.10
8227;BMP180;4154;48.810;9.012;2023-02-04T10:08:18;98748.00;;;6.20
8227;BMP180;4154;48.810;9.012;2023-02-04T10:10:47;98739.00;;;6.30
8227;BMP180;4154;48.810;9.012;2023-02-04T10:13:22;98733.00;;;6.30
8227;BMP180;4154;48.810;9.012;2023-02-04T10:15:49;98743.00;;;6.40
8227;BMP180;4154;48.810;9.012;2023-02-04T10:18:27;98749.00;;;6.40
8227;BMP180;4154;48.810;9.012;2023-02-04T10:21:18;98741.00;;;6.50
8227;BMP180;4154;48.810;9.012;2023-02-04T10:23:53;98743.00;;;6.30
8227;BMP180;4154;48.810;9.012;2023-02-04T10:26:21;98736.00;;;6.20
8227;BMP180;4154;48.810;9.012;2023-02-04T10:28:47;98739.00;;;6.30
8227;BMP180;4154;48.810;9.012;2023-02-04T10:31:36;98724.00;;;6.30
8227;BMP180;4154;48.810;9.012;2023-02-04T10:36:31;98729.00;;;6.30
8227;BMP180;4154;48.810;9.012;2023-02-04T10:39:17;98733.00;;;6.20
8227;BMP180;4154;48.810;9.012;2023-02-04T10:41:51;98729.00;;;6.20
8227;BMP180;4154;48.810;9.012;2023-02-04T10:44:30;98733.00;;;6.10
8227;BMP180;4154;48.810;9.012;2023-02-04T10:47:12;98729.00;;;6.10
8227;BMP180;4154;48.810;9.012;2023-02-04T10:49:40;98724.00;;;6.10
8227;BMP180;4154;48.810;9.012;2023-02-04T10:52:16;98724.00;;;6.20
8227;BMP180;4154;48.810;9.012;2023-02-04T10:54:42;98716.00;;;6.20
8227;BMP180;4154;48.810;9.012;2023-02-04T10:57:21;98724.00;;;6.30
8227;BMP180;4154;48.810;9.012;2023-02-04T10:59:52;98725.00;;;6.30
8227;BMP180;4154;48.810;9.012;2023-02-04T11:03:01;98735.00;;;6.40
8227;BMP180;4154;48.810;9.012;2023-02-04T11:05:33;98737.00;;;6.40
8227;BMP180;4154;48.810;9.012;2023-02-04T11:08:01;98735.00;;;6.30
8227;BMP180;4154;48.810;9.012;2023-02-04T11:10:31;98739.00;;;6.30
8227;BMP180;4154;48.810;9.012;2023-02-04T11:13:03;98744.00;;;6.30
8227;BMP180;4154;48.810;9.012;2023-02-04T11:15:47;98740.00;;;6.30
8227;BMP180;4154;48.810;9.012;2023-02-04T11:20:46;98724.00;;;6.20
8227;BMP180;4154;48.810;9.012;2023-02-04T11:26:34;98731.00;;;6.20
8227;BMP180;4154;48.810;9.012;2023-02-04T11:31:40;98733.00;;;6.40
8227;BMP180;4154;48.810;9.012;2023-02-04T11:34:24;98732.00;;;6.50
8227;BMP180;4154;48.810;9.012;2023-02-04T11:37:05;98731.00;;;6.50
8227;BMP180;4154;48.810;9.012;2023-02-04T11:39:42;98737.00;;;6.50
8227;BMP180;4154;48.810;9.012;2023-02-04T11:42:29;98741.00;;;6.40
8227;BMP180;4154;48.810;9.012;2023-02-04T11:45:04;98733.00;;;6.40
8227;BMP180;4154;48.810;9.012;2023-02-04T11:47:35;98733.00;;;6.40
8227;BMP180;4154;48.810;9.012;2023-02-04T11:50:23;98726.00;;;6.40
8227;BMP180;4154;48.810;9.012;2023-02-04T11:52:50;98732.00;;;6.40
8227;BMP180;4154;48.810;9.012;2023-02-04T11:55:18;98724.00;;;6.40
8227;BMP180;4154;48.810;9.012;2023-02-04T11:57:44;98721.00;;;6.40
8227;BMP180;4154;48.810;9.012;2023-02-04T12:00:18;98735.00;;;6.40
8227;BMP180;4154;48.810;9.012;2023-02-04T12:03:02;98734.00;;;6.40
8227;BMP180;4154;48.810;9.012;2023-02-04T12:05:45;98738.00;;;6.50
8227;BMP180;4154;48.810;9.012;2023-02-04T12:11:08;98745.00;;;6.60
8227;BMP180;4154;48.810;9.012;2023-02-04T12:13:48;98744.00;;;6.80
8227;BMP180;4154;48.810;9.012;2023-02-04T12:16:14;98734.00;;;6.90
8227;BMP180;4154;48.810;9.012;2023-02-04T12:18:40;98748.00;;;6.90
8227;BMP180;4154;48.810;9.012;2023-02-04T12:21:05;98748.00;;;7.00
8227;BMP180;4154;48.810;9.012;2023-02-04T12:23:32;98747.00;;;7.00
8227;BMP180;4154;48.810;9.012;2023-02-04T12:25:58;98748.00;;;7.00
8227;BMP180;4154;48.810;9.012;2023-02-04T12:28:24;98754.00;;;7.00
8227;BMP180;4154;48.810;9.012;2023-02-04T12:30:50;98745.00;;;7.00
8227;BMP180;4154;48.810;9.012;2023-02-04T12:33:16;98745.00;;;7.00
8227;BMP180;4154;48.810;9.012;2023-02-04T12:35:42;98741.00;;;6.90
8227;BMP180;4154;48.810;9.012;2023-02-04T12:38:08;98747.00;;;6.90
8227;BMP180;4154;48.810;9.012;2023-02-04T12:40:35;98746.00;;;7.00
8227;BMP180;4154;48.810;9.012;2023-02-04T12:43:00;98737.00;;;7.00
8227;BMP180;4154;48.810;9.012;2023-02-04T12:45:26;98738.00;;;7.10
8227;BMP180;4154;48.810;9.012;2023-02-04T12:47:52;98738.00;;;7.20
8227;BMP180;4154;48.810;9.012;2023-02-04T12:50:18;98740.00;;;7.20
8227;BMP180;4154;48.810;9.012;2023-02-04T12:52:52;98743.00;;;7.10
8227;BMP180;4154;48.810;9.012;2023-02-04T12:55:22;98748.00;;;7.10
8227;BMP180;4154;48.810;9.012;2023-02-04T12:57:48;98744.00;;;7.20
8227;BMP180;4154;48.810;9.012;2023-02-04T13:00:18;98746.00;;;7.00
8227;BMP180;4154;48.810;9.012;2023-02-04T13:02:45;98748.00;;;7.10
8227;BMP180;4154;48.810;9.012;2023-02-04T13:05:12;98747.00;;;7.10
8227;BMP180;4154;48.810;9.012;2023-02-04T13:07:38;98739.00;;;7.10
8227;BMP180;4154;48.810;9.012;2023-02-04T13:10:09;98755.00;;;7.00
8227;BMP180;4154;48.810;9.012;2023-02-04T13:12:36;98748.00;;;7.00
8227;BMP180;4154;48.810;9.012;2023-02-04T13:15:02;98750.00;;;7.00
8227;BMP180;4154;48.810;9.012;2023-02-04T13:17:28;98749.00;;;7.10
8227;BMP180;4154;48.810;9.012;2023-02-04T13:19:53;98762.00;;;7.10
8227;BMP180;4154;48.810;9.012;2023-02-04T13:22:19;98757.00;;;7.10
8227;BMP180;4154;48.810;9.012;2023-02-04T13:24:46;98751.00;;;7.20
8227;BMP180;4154;48.810;9.012;2023-02-04T13:27:11;98759.00;;;7.10
8227;BMP180;4154;48.810;9.012;2023-02-04T13:29:37;98754.00;;;7.20
8227;BMP180;4154;48.810;9.012;2023-02-04T13:32:05;98760.00;;;7.10
8227;BMP180;4154;48.810;9.012;2023-02-04T13:34:30;98756.00;;;7.20
8227;BMP180;4154;48.810;9.012;2023-02-04T13:36:56;98760.00;;;7.10
8227;BMP180;4154;48.810;9.012;2023-02-04T13:39:21;98754.00;;;7.00
8227;BMP180;4154;48.810;9.012;2023-02-04T13:41:48;98768.00;;;7.00
8227;BMP180;4154;48.810;9.012;2023-02-04T13:44:13;98765.00;;;7.00
8227;BMP180;4154;48.810;9.012;2023-02-04T13:46:39;98770.00;;;7.00
8227;BMP180;4154;48.810;9.012;2023-02-04T13:49:05;98775.00;;;7.00
8227;BMP180;4154;48.810;9.012;2023-02-04T13:51:30;98777.00;;;6.90
8227;BMP180;4154;48.810;9.012;2023-02-04T13:53:56;98767.00;;;7.00
8227;BMP180;4154;48.810;9.012;2023-02-04T13:56:23;98784.00;;;7.10
8227;BMP180;4154;48.810;9.012;2023-02-04T13:58:49;98778.00;;;7.20
8227;BMP180;4154;48.810;9.012;2023-02-04T14:01:15;98779.00;;;7.20
8227;BMP180;4154;48.810;9.012;2023-02-04T14:03:41;98786.00;;;7.10
8227;BMP180;4154;48.810;9.012;2023-02-04T14:06:07;98787.00;;;7.10
8227;BMP180;4154;48.810;9.012;2023-02-04T14:08:33;98793.00;;;7.10
8227;BMP180;4154;48.810;9.012;2023-02-04T14:10:58;98788.00;;;7.00
8227;BMP180;4154;48.810;9.012;2023-02-04T14:13:24;98784.00;;;6.90
8227;BMP180;4154;48.810;9.012;2023-02-04T14:15:51;98776.00;;;6.90
8227;BMP180;4154;48.810;9.012;2023-02-04T14:18:16;98778.00;;;6.80
8227;BMP180;4154;48.810;9.012;2023-02-04T14:20:42;98782.00;;;6.60
8227;BMP180;4154;48.810;9.012;2023-02-04T14:23:09;98778.00;;;6.50
8227;BMP180;4154;48.810;9.012;2023-02-04T14:25:37;98786.00;;;6.50
8227;BMP180;4154;48.810;9.012;2023-02-04T14:28:03;98792.00;;;6.40
8227;BMP180;4154;48.810;9.012;2023-02-04T14:30:30;98792.00;;;6.40
8227;BMP180;4154;48.810;9.012;2023-02-04T14:32:57;98795.00;;;6.40
8227;BMP180;4154;48.810;9.012;2023-02-04T14:35:24;98793.00;;;6.40
8227;BMP180;4154;48.810;9.012;2023-02-04T14:37:50;98801.00;;;6.40
8227;BMP180;4154;48.810;9.012;2023-02-04T14:40:18;98795.00;;;6.40
8227;BMP180;4154;48.810;9.012;2023-02-04T14:42:44;98799.00;;;6.40
8227;BMP180;4154;48.810;9.012;2023-02-04T14:45:13;98799.00;;;6.50
8227;BMP180;4154;48.810;9.012;2023-02-04T14:47:40;98803.00;;;6.50
8227;BMP180;4154;48.810;9.012;2023-02-04T14:50:11;98809.00;;;6.50
8227;BMP180;4154;48.810;9.012;2023-02-04T14:52:37;98805.00;;;6.40
8227;BMP180;4154;48.810;9.012;2023-02-04T14:55:03;98807.00;;;6.40
8227;BMP180;4154;48.810;9.012;2023-02-04T14:57:29;98809.00;;;6.40
8227;BMP180;4154;48.810;9.012;2023-02-04T14:59:54;98805.00;;;6.40
8227;BMP180;4154;48.810;9.012;2023-02-04T15:02:20;98810.00;;;6.40
8227;BMP180;4154;48.810;9.012;2023-02-04T15:04:46;98805.00;;;6.40